sim
Sign-in with your pilot id or email,
or register
Callsign
Passwort

Schedule Details

Flight Number: DLH2115
Departure: Bremen Airport (EDDW) at 19:25
Arrival: Munich Airport (EDDM) at 20:35
Route: Lufthansa Passenger Schedule. Enter filed route here before submitting Pirep.

Weather Information
Getting current METAR information for EDDW 260150Z 07002KT CAVOK 07/06 Q0996
Getting current METAR information for EDDM 260150Z 26011KT 9999 -RA SCT014 BKN024 08/06 Q1000 NOSIG

Schedule Frequency

Route Map